Time;durP1;ratioP1;P1;durP2;ratioP2;P2;SDS_P1;SDS_P2;PMS_P1;PMS_P2;Temp;Humidity;BMP_temperature;BMP_pressure;BME280_temperature;BME280_humidity;BME280_pressure;Samples;Min_cycle;Max_cycle;Signal;HPM_P1;HPM_P2
2023/05/13 00:02:23;;;;;;;13.13;8.57;;;11.50;99.90;;;;;;5032833;28;20211;-84
2023/05/13 00:04:49;;;;;;;12.93;8.93;;;11.50;99.90;;;;;;5034818;28;20183;-84
2023/05/13 00:07:14;;;;;;;8.93;8.07;;;11.50;99.90;;;;;;5034948;28;20169;-84
2023/05/13 00:09:40;;;;;;;14.30;8.07;;;11.40;99.90;;;;;;5034212;28;20663;-84
2023/05/13 00:12:06;;;;;;;11.93;8.67;;;11.40;99.90;;;;;;5031832;28;20216;-84
2023/05/13 00:14:32;;;;;;;9.33;7.67;;;11.40;99.90;;;;;;5034359;28;20180;-83
2023/05/13 00:16:58;;;;;;;9.20;8.13;;;11.40;99.90;;;;;;5033934;28;20555;-84
2023/05/13 00:19:23;;;;;;;10.33;8.07;;;11.40;99.90;;;;;;5035086;28;20260;-84
2023/05/13 00:21:49;;;;;;;9.47;8.07;;;11.40;99.90;;;;;;5036102;28;20600;-84
2023/05/13 00:24:15;;;;;;;10.83;9.30;;;11.40;99.90;;;;;;5043482;28;20192;-84
2023/05/13 00:26:41;;;;;;;9.97;8.27;;;11.30;99.90;;;;;;5050111;28;20180;-83
2023/05/13 00:29:06;;;;;;;9.07;8.17;;;11.30;99.90;;;;;;5029297;28;20292;-84
2023/05/13 00:31:32;;;;;;;11.53;8.30;;;11.40;99.90;;;;;;5013802;28;20576;-85
2023/05/13 00:33:57;;;;;;;10.57;8.10;;;11.40;99.90;;;;;;5018798;28;20184;-84
2023/05/13 00:36:23;;;;;;;10.13;7.90;;;11.40;99.90;;;;;;5024639;28;20187;-84
2023/05/13 00:38:48;;;;;;;14.33;9.43;;;11.50;99.90;;;;;;5019840;28;20177;-84
2023/05/13 00:41:14;;;;;;;9.57;8.57;;;11.50;99.90;;;;;;5020061;28;20287;-86
2023/05/13 00:43:39;;;;;;;14.10;8.80;;;11.50;99.90;;;;;;5021518;28;20184;-83
2023/05/13 00:46:05;;;;;;;13.20;9.67;;;11.50;99.90;;;;;;5040773;28;20184;-84
2023/05/13 00:48:32;;;;;;;9.47;8.37;;;11.50;99.90;;;;;;5038455;28;20180;-84
2023/05/13 00:50:58;;;;;;;14.23;9.00;;;11.50;99.90;;;;;;5039508;28;20193;-84
2023/05/13 00:53:24;;;;;;;9.93;8.33;;;11.50;99.90;;;;;;5039096;28;20176;-84
2023/05/13 00:55:49;;;;;;;15.03;8.67;;;11.50;99.90;;;;;;5040453;28;20176;-84
2023/05/13 00:58:16;;;;;;;14.97;9.70;;;11.40;99.90;;;;;;5038282;28;20541;-84
2023/05/13 01:01:03;;;;;;;10.33;8.37;;;11.40;99.90;;;;;;5036780;28;20196;-84
2023/05/13 01:03:49;;;;;;;10.53;9.47;;;11.90;99.90;;;;;;5040137;28;20168;-84
2023/05/13 01:06:29;;;;;;;12.87;8.60;;;11.40;99.90;;;;;;5037840;28;20171;-84
2023/05/13 01:09:08;;;;;;;9.43;8.43;;;11.40;99.90;;;;;;5037738;28;20182;-84
2023/05/13 01:11:40;;;;;;;11.33;9.00;;;11.40;99.90;;;;;;5036088;28;20609;-84
2023/05/13 01:14:13;;;;;;;9.57;8.30;;;11.40;99.90;;;;;;5037729;28;20156;-84
2023/05/13 01:16:46;;;;;;;12.80;9.03;;;11.40;99.90;;;;;;5035509;28;20554;-84
2023/05/13 01:19:38;;;;;;;11.30;8.83;;;11.30;99.90;;;;;;5035552;28;20665;-84
2023/05/13 01:22:05;;;;;;;13.33;9.03;;;11.30;99.90;;;;;;5035687;28;20711;-84
2023/05/13 01:24:31;;;;;;;9.70;8.57;;;11.20;99.90;;;;;;5035731;28;20659;-84
2023/05/13 01:26:57;;;;;;;10.90;8.53;;;11.40;99.90;;;;;;5034744;28;20190;-84
2023/05/13 01:29:22;;;;;;;11.00;9.03;;;11.20;99.90;;;;;;5036595;28;20192;-84
2023/05/13 01:31:50;;;;;;;10.93;9.83;;;11.20;99.90;;;;;;5036810;28;20204;-84
2023/05/13 01:34:17;;;;;;;12.23;9.97;;;11.20;99.90;;;;;;5033441;28;20188;-83
2023/05/13 01:36:43;;;;;;;12.47;9.73;;;11.20;99.90;;;;;;5031270;28;20176;-84
2023/05/13 01:39:09;;;;;;;17.53;9.70;;;11.20;99.90;;;;;;5033323;28;20204;-84
2023/05/13 01:41:35;;;;;;;15.07;10.77;;;11.20;99.90;;;;;;5032495;28;20740;-84
2023/05/13 01:44:00;;;;;;;13.17;9.87;;;11.20;99.90;;;;;;5032854;28;20188;-84
2023/05/13 01:46:26;;;;;;;13.40;10.17;;;11.20;99.90;;;;;;5034108;28;20176;-84
2023/05/13 01:48:52;;;;;;;11.33;9.70;;;11.20;99.90;;;;;;5013934;28;20201;-84
2023/05/13 01:51:17;;;;;;;11.30;10.10;;;11.20;99.90;;;;;;5014092;28;20205;-84
2023/05/13 01:53:43;;;;;;;14.57;10.50;;;11.20;99.90;;;;;;5012864;28;20169;-85
2023/05/13 01:56:09;;;;;;;12.23;10.43;;;11.20;99.90;;;;;;5019852;28;20172;-84
2023/05/13 01:58:35;;;;;;;13.37;10.00;;;11.10;99.90;;;;;;5030489;28;20184;-84
2023/05/13 02:01:02;;;;;;;14.57;9.53;;;11.10;99.90;;;;;;5033734;28;20188;-84
2023/05/13 02:03:28;;;;;;;12.10;10.23;;;11.00;99.90;;;;;;5034846;28;20221;-84
2023/05/13 02:05:54;;;;;;;12.73;10.10;;;11.00;99.90;;;;;;5032794;28;20180;-84
2023/05/13 02:08:24;;;;;;;11.07;9.43;;;11.00;99.90;;;;;;5034547;28;20179;-84
2023/05/13 02:10:56;;;;;;;11.87;10.57;;;11.00;99.90;;;;;;5034962;28;20207;-84
2023/05/13 02:13:22;;;;;;;14.80;10.70;;;11.00;99.90;;;;;;4997317;28;1042927;-84
2023/05/13 02:15:47;;;;;;;12.00;10.20;;;10.90;99.90;;;;;;5034948;28;20176;-84
2023/05/13 02:18:13;;;;;;;11.57;9.67;;;11.00;99.90;;;;;;5034170;28;20180;-84
2023/05/13 02:20:38;;;;;;;12.17;9.23;;;11.00;99.90;;;;;;5029554;28;20254;-85
2023/05/13 02:23:04;;;;;;;11.90;9.60;;;11.00;99.90;;;;;;5034324;28;20195;-84
2023/05/13 02:25:29;;;;;;;14.07;9.77;;;10.90;99.90;;;;;;5033281;28;20539;-84
2023/05/13 02:27:55;;;;;;;11.20;9.47;;;10.90;99.90;;;;;;5033897;28;20214;-84
2023/05/13 02:30:21;;;;;;;12.37;10.23;;;10.90;99.90;;;;;;5033141;28;20698;-84
2023/05/13 02:32:46;;;;;;;11.57;9.17;;;10.80;99.90;;;;;;5035023;28;20634;-84
2023/05/13 02:35:12;;;;;;;11.53;10.43;;;10.80;99.90;;;;;;5033667;28;20184;-84
2023/05/13 02:37:37;;;;;;;21.23;12.03;;;10.80;99.90;;;;;;5016888;28;20226;-84
2023/05/13 02:40:03;;;;;;;12.60;9.80;;;10.80;99.90;;;;;;5013054;28;20205;-84
2023/05/13 02:42:29;;;;;;;13.73;10.73;;;10.80;99.90;;;;;;5013647;28;20183;-84
2023/05/13 02:44:54;;;;;;;12.67;11.30;;;10.80;99.90;;;;;;5012990;28;20593;-84
2023/05/13 02:47:20;;;;;;;14.07;10.83;;;10.80;99.90;;;;;;5014279;28;20173;-84
2023/05/13 02:49:45;;;;;;;13.03;11.70;;;10.80;99.90;;;;;;5009895;28;20531;-84
2023/05/13 02:52:11;;;;;;;13.23;11.83;;;10.80;99.90;;;;;;5018714;28;20208;-84
2023/05/13 02:54:36;;;;;;;19.80;11.80;;;10.80;99.90;;;;;;5031194;28;20202;-84
2023/05/13 02:57:02;;;;;;;14.50;11.73;;;10.80;99.90;;;;;;5030685;28;20655;-84
2023/05/13 02:59:28;;;;;;;14.70;12.10;;;10.70;99.90;;;;;;5031986;28;20188;-84
2023/05/13 03:01:53;;;;;;;14.27;12.77;;;10.70;99.90;;;;;;5031344;28;20175;-84
2023/05/13 03:04:19;;;;;;;16.57;12.47;;;10.70;99.90;;;;;;5031239;28;20203;-84
2023/05/13 03:06:46;;;;;;;15.43;12.17;;;10.70;99.90;;;;;;5033555;28;20176;-84
2023/05/13 03:09:11;;;;;;;14.13;11.83;;;10.70;99.90;;;;;;5031043;28;20267;-84
2023/05/13 03:11:37;;;;;;;14.50;11.10;;;10.70;99.90;;;;;;5031466;28;20613;-84
2023/05/13 03:14:02;;;;;;;13.37;11.70;;;10.70;99.90;;;;;;5036088;28;20263;-84
2023/05/13 03:16:28;;;;;;;13.47;12.07;;;10.60;99.90;;;;;;5036203;28;20181;-84
2023/05/13 03:18:53;;;;;;;16.20;12.10;;;10.60;99.90;;;;;;5034970;28;20169;-84
2023/05/13 03:21:19;;;;;;;18.27;11.80;;;10.60;99.90;;;;;;5036855;28;20221;-84
2023/05/13 03:23:44;;;;;;;16.83;12.50;;;10.60;99.90;;;;;;5034967;28;20172;-83
2023/05/13 03:26:10;;;;;;;14.90;11.73;;;10.60;99.90;;;;;;5018264;28;20272;-84
2023/05/13 03:28:35;;;;;;;15.80;12.73;;;10.60;99.90;;;;;;5014717;28;20207;-84
2023/05/13 03:31:01;;;;;;;14.13;11.13;;;10.60;99.90;;;;;;5031173;28;20243;-84
2023/05/13 03:33:28;;;;;;;14.77;12.17;;;10.60;99.90;;;;;;5016059;28;20598;-84
2023/05/13 03:35:54;;;;;;;16.33;12.73;;;10.60;99.90;;;;;;5015320;28;20175;-84
2023/05/13 03:38:19;;;;;;;13.63;11.40;;;10.60;99.90;;;;;;5015236;28;20264;-84
2023/05/13 03:40:45;;;;;;;13.90;11.70;;;10.50;99.90;;;;;;5016873;28;20200;-83
2023/05/13 03:43:11;;;;;;;14.97;11.60;;;10.50;99.90;;;;;;5024698;28;20203;-83
2023/05/13 03:45:37;;;;;;;18.53;10.90;;;10.50;99.90;;;;;;5033483;28;20188;-84
2023/05/13 03:48:02;;;;;;;13.57;11.57;;;10.50;99.90;;;;;;5036439;28;20164;-84
2023/05/13 03:50:28;;;;;;;13.43;11.60;;;10.50;99.90;;;;;;5034400;28;20590;-84
2023/05/13 03:52:55;;;;;;;16.30;11.90;;;10.50;99.90;;;;;;5034692;28;20192;-84
2023/05/13 03:55:20;;;;;;;12.63;11.33;;;10.50;99.90;;;;;;5033477;28;20196;-84
2023/05/13 03:57:48;;;;;;;16.53;12.33;;;10.50;99.90;;;;;;5033486;28;20198;-83
2023/05/13 04:00:14;;;;;;;12.20;10.90;;;10.50;99.90;;;;;;5035721;28;20190;-84
2023/05/13 04:02:39;;;;;;;15.63;11.30;;;10.50;99.90;;;;;;5039229;28;20173;-83
2023/05/13 04:05:05;;;;;;;15.47;12.33;;;10.40;99.90;;;;;;5040981;28;20611;-84
2023/05/13 04:07:31;;;;;;;19.50;12.57;;;10.40;99.90;;;;;;5040084;28;20285;-83
2023/05/13 04:09:56;;;;;;;13.70;12.17;;;10.40;99.90;;;;;;5042358;28;20200;-83
2023/05/13 04:12:22;;;;;;;16.63;13.33;;;10.30;99.90;;;;;;5040527;28;20223;-83
2023/05/13 04:14:47;;;;;;;15.77;12.80;;;10.30;99.90;;;;;;5036378;28;20293;-84
2023/05/13 04:17:13;;;;;;;13.63;11.90;;;10.40;99.90;;;;;;5034441;28;20180;-84
2023/05/13 04:19:38;;;;;;;14.43;11.53;;;10.30;99.90;;;;;;5033813;28;20307;-84
2023/05/13 04:22:04;;;;;;;16.47;12.43;;;10.30;99.90;;;;;;5034882;28;20183;-83
2023/05/13 04:24:30;;;;;;;13.20;11.33;;;10.30;99.90;;;;;;5033988;28;20183;-84
2023/05/13 04:26:55;;;;;;;15.63;11.83;;;10.30;99.90;;;;;;5035241;28;20192;-83
2023/05/13 04:29:21;;;;;;;16.13;12.03;;;10.30;99.90;;;;;;5033540;28;20291;-84
2023/05/13 04:31:47;;;;;;;14.17;11.87;;;10.50;99.90;;;;;;5033598;28;20204;-84
2023/05/13 04:34:12;;;;;;;13.13;11.23;;;10.30;99.90;;;;;;5034325;28;20225;-84
2023/05/13 04:36:38;;;;;;;13.07;11.10;;;10.30;99.90;;;;;;5035795;28;20260;-84
2023/05/13 04:39:03;;;;;;;17.27;12.87;;;10.30;99.90;;;;;;5034367;28;20647;-83
2023/05/13 04:41:29;;;;;;;16.57;11.57;;;10.30;99.90;;;;;;5037077;28;20189;-84
2023/05/13 04:43:54;;;;;;;15.30;11.83;;;10.30;99.90;;;;;;5034505;28;20188;-84
2023/05/13 04:46:20;;;;;;;13.73;11.97;;;10.30;99.90;;;;;;5035995;28;20176;-83
2023/05/13 04:48:47;;;;;;;13.27;11.43;;;10.40;99.90;;;;;;5032686;28;20196;-83
2023/05/13 04:51:14;;;;;;;13.40;11.00;;;10.30;99.90;;;;;;5034341;28;20241;-84
2023/05/13 04:53:39;;;;;;;14.73;12.00;;;10.30;99.90;;;;;;5034740;28;20172;-84
2023/05/13 04:56:05;;;;;;;17.90;12.13;;;10.30;99.90;;;;;;5034453;28;20197;-84
2023/05/13 04:58:31;;;;;;;15.63;13.10;;;10.30;99.90;;;;;;5031408;28;20180;-84
2023/05/13 05:00:56;;;;;;;16.87;11.67;;;10.30;99.90;;;;;;5032328;28;20671;-84
2023/05/13 05:03:23;;;;;;;13.93;11.87;;;10.30;99.90;;;;;;5033033;28;20217;-84
2023/05/13 05:05:48;;;;;;;15.97;13.63;;;10.40;99.90;;;;;;5033303;28;20183;-83
2023/05/13 05:08:14;;;;;;;14.17;12.37;;;10.40;99.90;;;;;;5032858;28;20172;-84
2023/05/13 05:10:40;;;;;;;17.27;12.60;;;10.40;99.90;;;;;;5033187;28;20193;-84
2023/05/13 05:13:05;;;;;;;17.00;12.90;;;10.40;99.90;;;;;;5031910;28;20227;-84
2023/05/13 05:15:31;;;;;;;12.87;11.57;;;10.40;99.90;;;;;;5031217;28;20260;-84
2023/05/13 05:17:56;;;;;;;14.67;12.23;;;10.40;99.90;;;;;;5033045;28;20204;-84
2023/05/13 05:20:23;;;;;;;16.27;12.13;;;10.50;99.90;;;;;;5035064;28;20188;-84
2023/05/13 05:22:49;;;;;;;15.80;12.37;;;10.50;99.90;;;;;;5033869;28;20180;-83
2023/05/13 05:25:15;;;;;;;17.57;12.90;;;10.50;99.90;;;;;;5034707;28;20203;-84
2023/05/13 05:27:40;;;;;;;15.20;12.50;;;10.60;99.90;;;;;;5036144;28;20182;-84
2023/05/13 05:30:07;;;;;;;16.37;11.83;;;10.60;99.90;;;;;;5036137;28;20251;-84
2023/05/13 05:32:33;;;;;;;16.30;12.30;;;10.60;99.90;;;;;;5020700;28;20197;-84
2023/05/13 05:35:01;;;;;;;15.20;12.80;;;10.70;99.90;;;;;;5014150;28;20280;-84
2023/05/13 05:37:28;;;;;;;13.83;12.03;;;10.70;99.90;;;;;;5014854;28;20192;-84
2023/05/13 05:39:53;;;;;;;15.40;12.27;;;10.80;99.90;;;;;;5011364;28;20200;-84
2023/05/13 05:42:18;;;;;;;15.50;12.60;;;10.80;99.90;;;;;;5020262;28;20176;-84
2023/05/13 05:44:44;;;;;;;14.13;12.70;;;10.90;99.90;;;;;;5032028;28;20172;-84
2023/05/13 05:47:10;;;;;;;15.07;12.57;;;10.90;99.90;;;;;;5033584;28;20199;-84
2023/05/13 05:49:35;;;;;;;18.37;13.27;;;11.00;99.90;;;;;;5033280;28;20188;-84
2023/05/13 05:52:01;;;;;;;14.77;12.50;;;11.00;99.90;;;;;;5031435;28;20219;-84
2023/05/13 05:54:27;;;;;;;14.63;12.00;;;11.10;99.90;;;;;;5033287;28;20178;-84
2023/05/13 05:56:52;;;;;;;15.57;12.70;;;11.20;99.90;;;;;;5018515;28;20180;-83
2023/05/13 05:59:18;;;;;;;15.33;13.47;;;11.20;99.90;;;;;;5013114;28;20201;-83
2023/05/13 06:01:45;;;;;;;20.70;15.67;;;11.20;99.90;;;;;;5013797;28;20178;-84
2023/05/13 06:04:10;;;;;;;22.10;14.73;;;11.40;99.90;;;;;;5014243;28;20256;-84
2023/05/13 06:06:36;;;;;;;18.27;13.67;;;11.20;99.90;;;;;;5012161;28;20603;-83
2023/05/13 06:09:02;;;;;;;17.67;15.87;;;11.50;99.90;;;;;;5013326;28;20193;-84
2023/05/13 06:11:27;;;;;;;22.73;15.23;;;11.60;99.90;;;;;;5015492;28;20652;-84
2023/05/13 06:13:53;;;;;;;17.90;15.63;;;11.70;99.90;;;;;;5026716;28;20199;-84
2023/05/13 06:16:19;;;;;;;18.67;15.90;;;11.60;99.90;;;;;;5031186;28;20164;-84
2023/05/13 06:18:44;;;;;;;18.83;15.23;;;11.80;99.90;;;;;;5032440;28;20548;-84
2023/05/13 06:21:10;;;;;;;21.37;17.07;;;11.90;99.90;;;;;;5030711;28;20194;-83
2023/05/13 06:23:36;;;;;;;19.33;16.40;;;11.90;99.90;;;;;;5031770;28;20204;-84
2023/05/13 06:26:02;;;;;;;21.47;17.37;;;12.00;99.90;;;;;;5030133;28;20520;-82
2023/05/13 06:28:27;;;;;;;22.47;16.93;;;12.10;99.90;;;;;;5030086;28;20181;-83
2023/05/13 06:30:53;;;;;;;18.97;16.43;;;12.20;99.90;;;;;;5030184;28;20224;-84
2023/05/13 06:33:18;;;;;;;18.60;15.40;;;12.30;99.90;;;;;;5032409;28;20179;-82
2023/05/13 06:35:48;;;;;;;18.63;13.93;;;12.40;99.90;;;;;;5032638;28;20172;-83
2023/05/13 06:38:16;;;;;;;15.40;13.63;;;12.50;99.90;;;;;;5030295;28;20172;-83
2023/05/13 06:40:43;;;;;;;17.77;12.80;;;12.60;99.90;;;;;;5032541;28;20192;-83
2023/05/13 06:43:13;;;;;;;14.80;11.37;;;12.70;99.90;;;;;;5027870;28;20199;-86
2023/05/13 06:45:38;;;;;;;14.70;11.83;;;12.70;99.90;;;;;;5023916;28;20173;-86
2023/05/13 06:48:04;;;;;;;13.73;10.97;;;12.80;99.90;;;;;;5029629;28;20716;-82
2023/05/13 06:50:30;;;;;;;11.80;10.20;;;12.80;99.90;;;;;;5035817;28;20196;-83
2023/05/13 06:52:56;;;;;;;13.07;10.43;;;12.90;99.90;;;;;;5034116;28;20204;-82
2023/05/13 06:55:22;;;;;;;11.53;10.17;;;12.90;99.90;;;;;;5034876;28;20194;-81
2023/05/13 06:57:47;;;;;;;10.87;8.77;;;13.00;99.90;;;;;;5034993;28;20172;-82
2023/05/13 07:00:14;;;;;;;13.70;9.40;;;13.10;99.90;;;;;;5035978;28;20684;-81
2023/05/13 07:02:40;;;;;;;13.50;9.87;;;13.20;99.90;;;;;;5035017;28;20172;-82
2023/05/13 07:05:06;;;;;;;14.27;8.30;;;13.30;99.90;;;;;;5036723;28;20176;-82
2023/05/13 07:07:32;;;;;;;10.67;8.70;;;13.40;99.90;;;;;;5035961;28;20197;-83
2023/05/13 07:09:57;;;;;;;11.80;8.60;;;13.40;99.90;;;;;;5036937;28;20685;-82
2023/05/13 07:12:23;;;;;;;12.27;8.30;;;13.50;99.90;;;;;;5036736;28;20582;-83
2023/05/13 07:14:49;;;;;;;10.17;7.67;;;13.70;99.90;;;;;;5034570;28;20206;-83
2023/05/13 07:17:15;;;;;;;7.50;6.77;;;13.80;99.90;;;;;;5034793;28;20180;-83
2023/05/13 07:19:40;;;;;;;7.37;6.47;;;13.80;99.90;;;;;;5035350;28;20241;-83
2023/05/13 07:22:06;;;;;;;9.27;7.10;;;13.90;99.90;;;;;;5036052;28;20543;-82
2023/05/13 07:24:32;;;;;;;9.40;6.77;;;14.00;99.90;;;;;;5035381;28;20192;-81
2023/05/13 07:26:57;;;;;;;8.87;7.03;;;14.10;99.90;;;;;;5030042;28;20209;-81
2023/05/13 07:29:24;;;;;;;8.60;6.37;;;14.10;99.90;;;;;;5014324;28;20196;-83
2023/05/13 07:31:49;;;;;;;9.30;5.60;;;14.30;99.90;;;;;;5012903;28;20204;-80
2023/05/13 07:34:15;;;;;;;8.97;6.00;;;14.40;99.90;;;;;;5013197;28;20532;-81
2023/05/13 07:36:40;;;;;;;8.07;5.90;;;14.50;99.90;;;;;;5013042;28;20284;-81
2023/05/13 07:39:07;;;;;;;7.93;6.23;;;14.60;99.90;;;;;;5013393;28;20177;-81
2023/05/13 07:41:33;;;;;;;6.67;5.43;;;14.70;99.90;;;;;;5015063;28;20264;-84
2023/05/13 07:43:59;;;;;;;8.27;6.50;;;14.90;99.90;;;;;;5011284;28;20185;-84
2023/05/13 07:46:24;;;;;;;7.13;6.43;;;14.90;99.90;;;;;;5014470;28;20230;-85
2023/05/13 07:48:50;;;;;;;12.10;6.07;;;15.10;99.90;;;;;;5012117;28;20238;-85
2023/05/13 07:51:17;;;;;;;7.20;6.30;;;15.10;99.90;;;;;;5012508;28;20613;-85
2023/05/13 07:53:44;;;;;;;7.40;5.50;;;15.10;99.90;;;;;;5011451;28;20709;-85
2023/05/13 07:56:09;;;;;;;9.43;6.47;;;15.10;99.90;;;;;;5011942;28;20226;-85
2023/05/13 07:58:36;;;;;;;11.83;6.43;;;15.20;99.90;;;;;;5012286;28;20601;-85
2023/05/13 08:01:02;;;;;;;12.53;5.77;;;15.20;99.90;;;;;;5010756;28;20612;-85
2023/05/13 08:03:28;;;;;;;6.53;5.07;;;15.30;99.90;;;;;;5011079;28;20682;-84
2023/05/13 08:05:54;;;;;;;9.53;6.10;;;15.30;99.90;;;;;;5012169;28;20175;-85
2023/05/13 08:08:19;;;;;;;9.73;5.37;;;15.30;99.90;;;;;;5012236;28;20173;-84
2023/05/13 08:10:45;;;;;;;10.90;6.17;;;15.30;99.90;;;;;;5010560;28;20223;-85
2023/05/13 08:13:10;;;;;;;8.37;5.40;;;15.30;99.90;;;;;;5011750;28;20232;-85
2023/05/13 08:15:37;;;;;;;8.77;5.57;;;15.40;99.90;;;;;;5013733;28;20186;-85
2023/05/13 08:18:02;;;;;;;9.10;6.40;;;15.40;99.90;;;;;;5025658;28;20200;-84
2023/05/13 08:20:28;;;;;;;7.83;5.77;;;15.30;99.90;;;;;;5010834;28;20739;-85
2023/05/13 08:22:57;;;;;;;9.77;6.20;;;15.30;99.90;;;;;;5049067;28;20186;-84
2023/05/13 08:25:23;;;;;;;8.43;5.80;;;15.30;99.90;;;;;;5051611;28;20171;-85
2023/05/13 08:27:49;;;;;;;6.73;6.03;;;15.30;99.90;;;;;;5051373;28;20176;-85
2023/05/13 08:30:15;;;;;;;9.27;6.20;;;15.30;99.90;;;;;;5049914;28;20196;-85
2023/05/13 08:32:40;;;;;;;7.03;5.70;;;15.40;99.90;;;;;;5050549;28;20191;-85
2023/05/13 08:35:06;;;;;;;8.17;5.27;;;15.30;99.90;;;;;;5029680;28;20570;-85
2023/05/13 08:37:32;;;;;;;6.87;5.30;;;15.40;99.90;;;;;;5029762;28;20176;-85
2023/05/13 08:40:00;;;;;;;8.40;5.00;;;15.40;99.90;;;;;;5030087;28;20695;-85
2023/05/13 08:42:31;;;;;;;7.83;5.40;;;15.50;99.90;;;;;;5030006;28;20187;-84
2023/05/13 08:44:57;;;;;;;6.20;5.23;;;15.50;99.90;;;;;;5030598;28;20168;-85
2023/05/13 08:47:49;;;;;;;7.37;5.10;;;15.50;99.90;;;;;;5028139;28;20191;-84
2023/05/13 08:50:16;;;;;;;8.20;4.60;;;15.60;99.90;;;;;;5010732;28;20243;-83
2023/05/13 08:52:42;;;;;;;6.43;4.73;;;15.80;99.90;;;;;;5013663;28;20698;-81
2023/05/13 08:55:08;;;;;;;6.47;4.30;;;15.90;1.00;;;;;;5012013;28;20175;-81
2023/05/13 08:57:34;;;;;;;7.40;4.33;;;16.00;1.00;;;;;;5012882;28;20242;-81
2023/05/13 08:59:59;;;;;;;4.70;4.10;;;16.20;1.00;;;;;;5013163;28;20193;-81
2023/05/13 09:02:25;;;;;;;5.77;4.03;;;16.60;1.00;;;;;;5013600;28;20189;-81
2023/05/13 09:04:53;;;;;;;5.33;4.00;;;16.80;99.90;;;;;;5023927;28;20687;-81
2023/05/13 09:07:19;;;;;;;6.07;3.40;;;17.00;99.90;;;;;;5034240;28;20179;-82
2023/05/13 09:09:45;;;;;;;4.47;3.50;;;17.10;99.90;;;;;;5034708;28;20200;-81
2023/05/13 09:12:10;;;;;;;3.77;2.73;;;17.20;99.90;;;;;;5032344;28;20243;-81
2023/05/13 09:14:37;;;;;;;5.10;2.40;;;17.40;99.90;;;;;;5032860;28;20540;-81
2023/05/13 09:17:03;;;;;;;5.60;2.70;;;17.50;99.90;;;;;;5032453;28;20177;-81
2023/05/13 09:19:28;;;;;;;6.63;3.10;;;17.50;99.90;;;;;;5032362;28;20682;-81
2023/05/13 09:21:55;;;;;;;8.47;3.43;;;17.50;79.20;;;;;;5027959;28;20197;-81
2023/05/13 09:24:22;;;;;;;7.63;2.90;;;17.70;1.00;;;;;;5011547;28;20176;-82
2023/05/13 09:26:50;;;;;;;5.97;3.33;;;17.80;42.50;;;;;;5012674;28;20169;-81
2023/05/13 09:29:22;;;;;;;4.27;2.67;;;17.90;1.00;;;;;;5012843;28;20189;-81
2023/05/13 09:31:53;;;;;;;5.43;3.40;;;18.00;2.50;;;;;;5012850;28;20757;-81
2023/05/13 09:34:24;;;;;;;5.30;3.50;;;18.20;1.00;;;;;;5013313;28;20165;-81
2023/05/13 09:36:57;;;;;;;7.10;3.50;;;18.40;1.00;;;;;;5011443;28;20169;-81
2023/05/13 09:39:23;;;;;;;8.83;3.27;;;18.50;1.00;;;;;;5011832;28;20627;-82
2023/05/13 09:41:49;;;;;;;4.60;3.27;;;18.60;1.00;;;;;;5017730;28;20204;-81
2023/05/13 09:44:14;;;;;;;5.60;3.33;;;18.60;1.00;;;;;;5028672;28;20276;-81
2023/05/13 09:46:42;;;;;;;4.93;2.63;;;18.70;1.00;;;;;;5026651;28;20188;-81
2023/05/13 09:49:09;;;;;;;5.60;3.20;;;18.80;1.00;;;;;;5028744;28;20230;-81
2023/05/13 09:51:34;;;;;;;5.87;2.77;;;18.90;1.00;;;;;;5027352;28;20209;-81
2023/05/13 09:54:05;;;;;;;4.10;2.83;;;19.10;1.00;;;;;;5019962;28;20188;-81
2023/05/13 09:56:33;;;;;;;5.53;2.80;;;19.20;1.00;;;;;;5015787;28;20173;-81
2023/05/13 09:59:00;;;;;;;3.13;2.40;;;19.20;1.00;;;;;;5015659;28;20169;-82
2023/05/13 10:01:29;;;;;;;5.07;2.60;;;19.30;1.00;;;;;;5014941;28;20192;-82
2023/05/13 10:03:58;;;;;;;5.90;2.80;;;19.40;1.00;;;;;;5015599;28;20187;-82
2023/05/13 10:06:25;;;;;;;5.87;3.00;;;19.40;1.00;;;;;;5014358;28;20248;-82
2023/05/13 10:08:52;;;;;;;2.80;2.40;;;19.40;1.00;;;;;;5014324;28;20184;-80
2023/05/13 10:11:18;;;;;;;6.23;2.90;;;19.50;1.00;;;;;;5015456;28;20193;-82
2023/05/13 10:13:53;;;;;;;7.27;2.90;;;19.50;1.00;;;;;;5014908;28;20193;-79
2023/05/13 10:16:19;;;;;;;9.13;2.80;;;19.60;1.00;;;;;;5013409;28;20584;-79
2023/05/13 10:18:46;;;;;;;3.67;2.57;;;19.70;1.00;;;;;;5013918;28;20252;-79
2023/05/13 10:21:11;;;;;;;4.67;2.87;;;19.70;99.90;;;;;;5013101;28;20288;-79
2023/05/13 10:23:37;;;;;;;5.30;2.40;;;19.90;1.00;;;;;;5016818;28;20240;-81
2023/05/13 10:26:04;;;;;;;9.57;2.73;;;19.90;99.90;;;;;;5017727;28;20177;-80
2023/05/13 10:28:31;;;;;;;3.13;2.43;;;20.10;99.90;;;;;;5019836;28;20173;-81
2023/05/13 10:30:57;;;;;;;3.83;2.43;;;20.10;99.90;;;;;;5017485;28;20199;-80
2023/05/13 10:33:23;;;;;;;4.97;2.50;;;20.20;99.90;;;;;;5017557;28;20216;-80
2023/05/13 10:36:33;;;;;;;2.87;2.50;;;20.30;1.00;;;;;;5019660;28;20230;-80
2023/05/13 10:39:15;;;;;;;5.40;2.20;;;20.40;1.00;;;;;;5019531;28;20504;-80
2023/05/13 10:42:19;;;;;;;8.00;2.63;;;20.30;99.90;;;;;;5018804;28;20177;-80
2023/05/13 10:44:44;;;;;;;5.07;2.70;;;20.40;1.00;;;;;;5019178;28;20161;-80
2023/05/13 10:47:10;;;;;;;4.10;2.77;;;20.40;99.90;;;;;;5019885;28;20264;-79
2023/05/13 10:49:36;;;;;;;6.53;2.60;;;20.50;1.00;;;;;;5019651;28;20205;-80
2023/05/13 10:52:05;;;;;;;4.60;2.30;;;20.60;99.90;;;;;;5017029;28;20295;-79
2023/05/13 10:54:37;;;;;;;6.70;2.40;;;20.60;1.00;;;;;;5018335;28;20202;-80
2023/05/13 10:57:03;;;;;;;3.80;2.57;;;20.70;1.00;;;;;;5017123;28;20503;-80
2023/05/13 10:59:29;;;;;;;4.63;2.90;;;20.80;1.00;;;;;;5016630;28;20219;-80
2023/05/13 11:01:55;;;;;;;3.67;2.50;;;20.80;99.90;;;;;;5016633;28;20173;-80
2023/05/13 11:04:21;;;;;;;4.83;2.73;;;20.80;1.00;;;;;;5017341;28;20215;-80
2023/05/13 11:06:48;;;;;;;4.43;2.30;;;20.80;1.00;;;;;;5016938;28;20173;-80
2023/05/13 11:09:27;;;;;;;8.73;2.87;;;21.00;1.00;;;;;;5014888;28;20201;-79
2023/05/13 11:11:55;;;;;;;3.47;2.53;;;20.90;1.00;;;;;;5015204;28;20212;-79
2023/05/13 11:14:30;;;;;;;3.97;2.57;;;21.00;99.90;;;;;;5013757;28;20169;-79
2023/05/13 11:16:58;;;;;;;4.33;2.37;;;21.10;1.00;;;;;;5014136;28;20168;-79
2023/05/13 11:19:31;;;;;;;2.93;2.07;;;21.10;99.90;;;;;;5016282;28;20573;-81
2023/05/13 11:22:22;;;;;;;4.90;2.27;;;21.20;99.90;;;;;;5016194;28;20179;-79
2023/05/13 11:25:09;;;;;;;5.80;2.70;;;21.30;99.90;;;;;;5015696;28;20173;-80
2023/05/13 11:27:39;;;;;;;5.67;2.50;;;21.30;1.00;;;;;;5016659;28;20248;-80
2023/05/13 11:30:06;;;;;;;2.77;2.17;;;21.30;1.00;;;;;;5016701;28;20189;-80
2023/05/13 11:32:54;;;;;;;2.67;2.17;;;21.40;1.00;;;;;;5016805;28;20212;-80
2023/05/13 11:35:25;;;;;;;4.03;2.70;;;21.50;99.90;;;;;;5014146;28;20169;-80
2023/05/13 11:37:50;;;;;;;2.57;2.17;;;21.60;1.00;;;;;;5014356;28;20664;-80
2023/05/13 11:40:26;;;;;;;5.60;2.20;;;21.60;99.90;;;;;;5015184;28;20193;-81
2023/05/13 11:42:53;;;;;;;3.83;2.27;;;21.70;99.90;;;;;;5015540;28;20177;-80
2023/05/13 11:45:21;;;;;;;3.80;2.33;;;21.70;1.00;;;;;;5014998;28;20177;-80
2023/05/13 11:47:47;;;;;;;4.73;2.30;;;21.70;1.00;;;;;;5017073;28;20648;-81
2023/05/13 11:50:29;;;;;;;8.93;2.37;;;21.80;1.00;;;;;;5015873;28;20267;-80
2023/05/13 11:52:56;;;;;;;10.37;2.47;;;21.90;76.60;;;;;;5016110;28;20652;-79
2023/05/13 11:55:34;;;;;;;4.83;2.37;;;21.90;1.00;;;;;;5015446;28;20649;-81
2023/05/13 11:58:00;;;;;;;3.23;2.10;;;21.90;1.00;;;;;;5014600;28;20173;-79
2023/05/13 12:00:33;;;;;;;5.87;2.37;;;22.00;1.00;;;;;;5016183;28;20197;-80
2023/05/13 12:03:01;;;;;;;6.90;2.47;;;22.00;1.00;;;;;;5013788;28;20181;-79
2023/05/13 12:05:27;;;;;;;3.57;2.33;;;22.10;1.00;;;;;;5017510;28;20282;-79
2023/05/13 12:07:57;;;;;;;3.53;2.27;;;22.20;1.00;;;;;;5014461;28;20284;-79
2023/05/13 12:10:23;;;;;;;4.40;2.30;;;22.10;1.00;;;;;;5014240;28;20299;-79
2023/05/13 12:12:49;;;;;;;7.33;2.30;;;22.20;1.00;;;;;;5015281;28;20258;-80
2023/05/13 12:15:16;;;;;;;5.87;2.17;;;22.10;99.90;;;;;;5013722;28;20189;-79
2023/05/13 12:17:43;;;;;;;5.53;2.60;;;22.10;99.90;;;;;;5014445;28;20527;-80
2023/05/13 12:20:11;;;;;;;3.67;2.47;;;22.40;1.00;;;;;;5015960;28;20193;-79
2023/05/13 12:22:58;;;;;;;2.87;1.90;;;22.40;99.90;;;;;;5014321;28;20185;-79
2023/05/13 12:25:42;;;;;;;6.13;2.30;;;22.50;1.00;;;;;;5013099;28;20652;-79
2023/05/13 12:28:25;;;;;;;2.97;2.20;;;22.60;73.90;;;;;;5013763;28;20253;-79
2023/05/13 12:31:02;;;;;;;4.27;2.40;;;22.60;99.90;;;;;;5013150;28;20212;-79
2023/05/13 12:33:32;;;;;;;3.03;2.07;;;22.50;1.00;;;;;;5014868;28;20193;-79
2023/05/13 12:36:24;;;;;;;3.77;2.23;;;22.40;99.90;;;;;;5014782;28;20169;-79
2023/05/13 12:39:04;;;;;;;4.17;2.57;;;22.20;99.90;;;;;;5015143;28;20214;-79
2023/05/13 12:41:37;;;;;;;2.93;2.30;;;22.30;96.40;;;;;;5013945;28;20181;-80